Latest Weather Observations for Viewbank

IDV60801

Issued at 8:32 am EST Friday 28 April 2017 (issued every 30 minutes, with the page automatically refreshed every 10 minutes)

About weather observations | Map of weather stations | Latest weather observations for VIC | Other Formats
Station Details ID: 086068 Name: VIEWBANK Lat: -37.74 Lon: 145.10 Height: 66.1 m
Data from the previous 72 hours. | See also: Recent months at Viewbank
Date/Time
EST
Temp
°C
App
Temp
°C
Dew
Point
°C
Rel
Hum
%
Delta-T
°C
Wind Press
QNH
hPa
Press
MSL
hPa
Rain since
9am
mm
Dir  Spd
km/h
Gust
km/h
Spd
kts
Gust
kts
28/08:30am 11.9 12.1 11.7 99 0.1 NE 2 6 1 3 1023.9 1023.9 0.8
28/08:00am 11.5 12.0 11.5 100 0.0 CALM 0 0 0 0 1023.7 1023.7 0.8
28/07:30am 11.2 11.5 11.0 99 0.1 CALM 0 0 0 0 1023.5 1023.5 0.8
28/07:00am 11.1 11.4 10.9 99 0.1 CALM 0 6 0 3 1023.4 1023.4 0.8
28/06:30am 11.1 10.6 10.9 99 0.1 NE 4 7 2 4 1023.0 1023.0 0.8
28/06:00am 11.1 11.4 10.9 99 0.1 CALM 0 4 0 2 1023.0 1023.0 0.8
28/05:30am 10.9 11.2 10.9 100 0.0 CALM 0 2 0 1 1023.0 1023.0 0.8
28/05:00am 10.7 10.6 10.7 100 0.0 NE 2 7 1 4 1022.8 1022.8 0.8
28/04:30am 10.8 11.1 10.8 100 0.0 CALM 0 6 0 3 1022.6 1022.6 0.8
28/04:00am 10.7 10.9 10.5 99 0.1 CALM 0 0 0 0 1022.7 1022.7 0.8
28/03:30am 10.8 11.0 10.6 99 0.1 CALM 0 6 0 3 1022.8 1022.8 0.8
28/03:00am 10.9 10.4 10.7 99 0.1 NE 4 7 2 4 1022.9 1022.9 0.8
28/02:30am 11.0 10.1 10.8 99 0.1 N 6 9 3 5 1023.0 1023.0 0.8
28/02:00am 10.9 11.1 10.7 99 0.1 CALM 0 0 0 0 1023.2 1023.2 0.8
28/01:30am 11.1 10.3 10.9 99 0.1 NNW 6 7 3 4 1023.2 1023.2 0.8
28/01:00am 11.2 11.5 10.9 98 0.2 CALM 0 6 0 3 1023.4 1023.4 0.8
28/12:30am 11.0 10.1 10.8 99 0.1 NW 6 11 3 6 1023.4 1023.4 0.8
28/12:00am 10.7 10.9 10.5 99 0.1 CALM 0 2 0 1 1023.6 1023.6 0.8
 
Date/Time
EST
Temp
°C
App
Temp
°C
Dew
Point
°C
Rel
Hum
%
Delta-T
°C
Wind Press
QNH
hPa
Press
MSL
hPa
Rain since
9am
mm
Dir  Spd
km/h
Gust
km/h
Spd
kts
Gust
kts
27/11:30pm 10.6 10.8 10.4 99 0.1 CALM 0 0 0 0 1023.6 1023.6 0.8
27/11:00pm 10.4 9.7 10.2 99 0.1 ENE 4 7 2 4 1023.7 1023.7 0.8
27/10:30pm 10.4 10.1 10.2 99 0.1 ENE 2 6 1 3 1023.7 1023.7 0.8
27/10:00pm 10.5 9.5 10.3 99 0.1 NE 6 9 3 5 1023.6 1023.6 0.8
27/09:30pm 10.5 10.3 10.3 99 0.1 ENE 2 6 1 3 1023.6 1023.6 0.8
27/09:00pm 10.4 10.5 10.2 99 0.1 CALM 0 6 0 3 1023.5 1023.5 0.8
27/08:30pm 10.5 10.3 10.3 99 0.1 SE 2 9 1 5 1023.4 1023.4 0.8
27/08:00pm 10.5 10.3 10.3 99 0.1 WSW 2 7 1 4 1023.5 1023.5 0.8
27/07:30pm 10.7 10.9 10.5 99 0.1 CALM 0 2 0 1 1023.6 1023.6 0.8
27/07:00pm 11.0 11.3 10.8 99 0.1 CALM 0 2 0 1 1023.5 1023.5 0.8
27/06:30pm 10.8 10.9 10.2 96 0.3 CALM 0 0 0 0 1023.2 1023.2 0.8
27/06:00pm 11.0 11.0 9.8 92 0.6 CALM 0 6 0 3 1022.9 1022.9 0.8
27/05:30pm 11.7 10.2 8.6 81 1.5 SW 6 11 3 6 1022.8 1022.8 0.8
27/05:00pm 11.9 10.1 8.0 77 1.9 SW 7 11 4 6 1022.7 1022.7 0.8
27/04:30pm 12.2 9.2 7.5 73 2.3 WSW 13 20 7 11 1022.7 1022.7 0.8
27/04:00pm 12.3 9.3 7.6 73 2.3 SW 13 20 7 11 1022.8 1022.8 0.8
27/03:30pm 13.0 9.6 7.5 69 2.7 WSW 15 24 8 13 1022.8 1022.8 0.8
27/03:00pm 13.7 10.9 8.5 71 2.6 SW 13 24 7 13 1022.7 1022.7 0.8
27/02:30pm 13.6 10.2 7.8 68 2.9 WSW 15 30 8 16 1023.0 1023.0 0.8
27/02:00pm 13.2 10.1 7.2 67 2.9 WSW 13 30 7 16 1022.6 1022.6 0.8
27/01:30pm 12.2 8.1 7.7 74 2.2 WSW 19 30 10 16 1022.7 1022.7 0.8
27/01:00pm 13.3 10.7 9.2 76 2.1 WSW 13 24 7 13 1022.6 1022.6 0.8
27/12:30pm 11.8 8.5 7.9 77 1.9 WSW 15 26 8 14 1023.0 1023.0 0.8
27/12:00pm 11.3 9.9 9.7 90 0.8 SE 7 24 4 13 1023.1 1023.1 0.8
27/11:30am 11.3 10.3 10.4 94 0.5 W 6 11 3 6 1023.2 1023.2 0.8
27/11:00am 10.4 9.2 10.2 99 0.1 WNW 7 11 4 6 1023.4 1023.4 0.8
27/10:30am 9.5 8.1 9.4 99 0.0 WNW 7 15 4 8 1023.3 1023.3 0.6
27/10:00am 9.9 7.8 9.8 99 0.1 WNW 11 19 6 10 1023.2 1023.2 0.2
27/09:30am 10.0 8.2 9.4 96 0.3 WNW 9 13 5 7 1023.2 1023.2 0.0
27/09:00am 8.9 6.5 8.8 99 0.0 W 11 15 6 8 1023.2 1023.2 13.0
27/08:30am 9.0 7.6 9.0 100 0.0 W 6 17 3 9 1022.7 1022.7 13.0
27/08:00am 7.9 6.7 7.9 100 0.0 NW 4 7 2 4 1022.4 1022.3 13.0
27/07:30am 7.3 5.0 7.3 100 0.0 WNW 9 19 5 10 1022.2 1022.1 13.0
27/07:00am 7.3 4.6 7.3 100 0.0 W 11 15 6 8 1022.0 1021.9 13.0
27/06:30am 7.5 5.6 7.5 100 0.0 SW 7 15 4 8 1021.6 1021.5 13.0
27/06:00am 7.6 5.3 7.6 100 0.0 W 9 17 5 9 1021.3 1021.2 12.6
27/05:30am 7.6 5.7 7.6 100 0.0 NW 7 15 4 8 1020.8 1020.7 12.6
27/05:00am 7.8 5.6 7.8 100 0.0 W 9 13 5 7 1020.5 1020.4 12.6
27/04:30am 7.7 5.8 7.7 100 0.0 WNW 7 13 4 7 1020.2 1020.1 12.0
27/04:00am 7.8 6.2 7.8 100 0.0 WNW 6 11 3 6 1020.1 1020.0 11.6
27/03:30am 7.8 5.6 7.8 100 0.0 W 9 13 5 7 1020.2 1020.1 11.6
27/03:00am 7.8 6.2 7.8 100 0.0 WNW 6 9 3 5 1020.1 1020.0 11.4
27/02:30am 7.6 5.7 7.6 100 0.0 W 7 11 4 6 1020.2 1020.1 11.4
27/02:00am 7.6 5.7 7.6 100 0.0 WNW 7 11 4 6 1019.9 1019.8 11.4
27/01:30am 7.5 5.8 7.5 100 0.0 WSW 6 11 3 6 1020.2 1020.1 11.2
27/01:00am 7.4 6.4 7.4 100 0.0 W 2 9 1 5 1019.7 1019.6 11.0
27/12:30am 7.6 5.3 7.6 100 0.0 WNW 9 11 5 6 1019.8 1019.7 10.8
27/12:00am 7.5 6.2 7.5 100 0.0 ENE 4 7 2 4 1019.6 1019.5 10.4
 
Date/Time
EST
Temp
°C
App
Temp
°C
Dew
Point
°C
Rel
Hum
%
Delta-T
°C
Wind Press
QNH
hPa
Press
MSL
hPa
Rain since
9am
mm
Dir  Spd
km/h
Gust
km/h
Spd
kts
Gust
kts
26/11:30pm 7.6 5.7 7.5 99 0.0 WSW 7 11 4 6 1019.6 1019.5 10.0
26/11:00pm 7.7 3.9 7.6 99 0.0 W 17 30 9 16 1019.1 1019.0 9.4
26/10:30pm 7.9 5.7 7.8 99 0.0 W 9 20 5 11 1019.2 1019.1 9.4
26/10:00pm 7.7 4.7 7.6 99 0.0 WSW 13 26 7 14 1019.4 1019.3 9.0
26/09:30pm 7.8 5.6 7.7 99 0.0 SW 9 13 5 7 1019.2 1019.1 7.8
26/09:00pm 8.0 4.7 7.9 99 0.0 WSW 15 24 8 13 1018.7 1018.6 7.2
26/08:30pm 8.6 4.3 7.1 90 0.7 SW 19 33 10 18 1018.5 1018.4 6.2
26/08:00pm 8.1 5.7 7.2 94 0.4 W 9 13 5 7 1018.1 1018.0 5.6
26/07:30pm 8.4 6.4 7.3 93 0.5 S 7 32 4 17 1018.3 1018.2 5.6
26/07:00pm 8.1 5.2 6.4 89 0.8 SW 11 17 6 9 1017.4 1017.3 5.6
26/06:30pm 8.5 5.4 7.4 93 0.5 WSW 13 32 7 17 1017.5 1017.4 5.2
26/06:00pm 8.5 5.1 6.0 84 1.1 SW 13 20 7 11 1016.7 1016.6 5.0
26/05:30pm 8.9 6.3 7.8 93 0.5 SW 11 28 6 15 1016.2 1016.1 4.8
26/05:00pm 8.5 4.0 6.3 86 1.0 SW 19 33 10 18 1015.7 1015.6 4.6
26/04:30pm 9.0 3.6 4.4 73 2.0 SSW 22 43 12 23 1015.6 1015.5 2.6
26/04:00pm 10.8 5.7 4.3 64 2.9 WSW 20 41 11 22 1015.1 1015.0 2.2
26/03:30pm 9.5 4.8 6.0 79 1.6 SW 20 43 11 23 1014.9 1014.8 2.2
26/03:04pm 11.2 4.5 3.7 60 3.3 SW 28 46 15 25 1014.2 1014.1 1.8
26/03:00pm 12.3 6.3 3.3 54 4.0 SW 24 35 13 19 1014.2 1014.1 1.8
26/02:43pm 12.1 5.2 2.6 52 4.1 SW 28 46 15 25 1013.9 1013.8 1.8
26/02:30pm 12.8 6.6 2.1 48 4.6 SW 24 39 13 21 1013.8 1013.7 1.8
26/02:01pm 11.8 4.4 3.8 58 3.6 SW 32 50 17 27 1013.4 1013.3 1.8
26/02:00pm 11.9 4.5 4.2 59 3.5 SW 32 48 17 26 1013.6 1013.5 1.8
26/01:37pm 11.7 5.1 4.2 60 3.4 SW 28 48 15 26 1013.0 1012.9 1.8
26/01:30pm 11.4 6.3 5.9 69 2.6 SW 22 37 12 20 1013.1 1013.0 1.8
26/01:08pm 10.4 4.2 6.2 75 2.0 SW 28 46 15 25 1013.0 1012.9 1.6
26/01:00pm 10.4 5.8 6.4 76 1.9 SW 20 37 11 20 1013.1 1013.0 1.6
26/12:30pm 12.6 5.1 4.6 58 3.7 SW 33 54 18 29 1012.6 1012.5 1.2
26/12:00pm 13.6 6.4 5.0 56 4.0 SW 32 57 17 31 1012.1 1012.1 1.2
26/11:30am 13.5 6.0 4.6 55 4.1 SW 33 59 18 32 1011.8 1011.8 1.2
26/11:03am 11.9 5.7 6.2 68 2.7 SW 28 50 15 27 1011.4 1011.4 1.2
26/11:00am 12.1 6.3 6.4 68 2.7 SW 26 50 14 27 1011.3 1011.3 1.2
26/10:37am 13.1 6.7 5.0 58 3.8 SW 28 52 15 28 1010.9 1010.9 1.2
26/10:30am 13.0 7.3 6.8 66 3.0 SW 26 46 14 25 1010.8 1010.8 1.2
26/10:00am 10.8 7.6 10.0 95 0.4 SW 17 37 9 20 1010.4 1010.4 1.2
26/09:30am 9.9 8.8 9.9 100 0.0 WSW 6 9 3 5 1010.3 1010.3 1.2
26/09:00am 9.1 7.2 9.1 100 0.0 WSW 9 17 5 9 1009.9 1009.9 24.4
26/08:30am 9.5 7.3 9.5 100 0.0 W 11 17 6 9 1009.3 1009.2 21.8
26/08:00am 9.0 7.5 9.0 100 0.0 SW 7 11 4 6 1009.0 1008.9 19.8
26/07:30am 8.6 5.1 8.6 100 0.0 SW 17 33 9 18 1008.5 1008.4 19.2
26/07:00am 9.8 8.5 9.8 100 0.0 W 7 11 4 6 1007.9 1007.8 16.4
26/06:30am 9.8 7.7 9.8 100 0.0 W 11 20 6 11 1007.5 1007.4 16.0
26/06:00am 9.9 8.2 9.9 100 0.0 W 9 17 5 9 1006.9 1006.8 15.0
26/05:30am 10.0 7.2 10.0 100 0.0 WNW 15 26 8 14 1006.4 1006.3 12.4
26/05:00am 10.4 7.0 10.4 100 0.0 WSW 19 33 10 18 1006.0 1005.9 10.6
26/04:30am 10.8 7.5 10.8 100 0.0 W 19 32 10 17 1005.1 1005.0 7.4
26/04:00am 10.9 7.0 10.7 99 0.1 W 22 35 12 19 1004.3 1004.2 4.0
26/03:30am 13.5 11.4 9.7 78 2.0 N 11 17 6 9 1003.3 1003.2 3.0
26/03:00am 12.8 10.6 10.7 87 1.1 N 13 19 7 10 1004.0 1003.9 3.0
26/02:30am 11.4 10.5 10.8 96 0.3 E 6 9 3 5 1004.1 1004.0 3.0
26/02:00am 11.6 10.5 10.5 93 0.6 NE 7 11 4 6 1004.2 1004.1 3.0
26/01:30am 12.1 10.0 9.8 86 1.2 NE 11 15 6 8 1004.3 1004.2 3.0
26/01:00am 12.0 10.8 10.4 90 0.8 N 7 13 4 7 1004.7 1004.6 3.0
26/12:30am 12.1 11.0 11.8 98 0.2 NE 9 13 5 7 1004.9 1004.8 3.0
26/12:00am 13.2 11.5 11.3 88 1.0 NNE 11 13 6 7 1005.3 1005.2 3.0
 
Date/Time
EST
Temp
°C
App
Temp
°C
Dew
Point
°C
Rel
Hum
%
Delta-T
°C
Wind Press
QNH
hPa
Press
MSL
hPa
Rain since
9am
mm
Dir  Spd
km/h
Gust
km/h
Spd
kts
Gust
kts
25/11:30pm 13.2 11.7 10.7 85 1.3 NW 9 15 5 8 1005.6 1005.5 3.0
25/11:00pm 13.5 11.9 11.6 88 1.0 NW 11 17 6 9 1005.8 1005.7 3.0
25/10:30pm 12.7 11.8 12.5 99 0.1 NW 9 13 5 7 1005.9 1005.8 3.0
25/10:00pm 12.4 10.6 12.2 99 0.1 WNW 13 20 7 11 1006.3 1006.2 2.8
25/09:30pm 13.9 13.0 13.7 99 0.1 NNE 11 19 6 10 1005.5 1005.4 1.0
25/09:00pm 13.1 13.3 13.1 100 0.0 NE 4 7 2 4 1005.7 1005.6 1.0
25/08:30pm 13.1 13.7 13.1 100 0.0 NE 2 7 1 4 1006.0 1005.9 1.0
25/08:00pm 13.6 14.0 13.6 100 0.0 NE 4 7 2 4 1006.1 1006.0 1.0
25/07:30pm 14.0 14.1 14.0 100 0.0 NNE 6 9 3 5 1006.2 1006.1 1.0
25/07:00pm 14.1 15.4 14.1 100 0.0 CALM 0 6 0 3 1006.3 1006.2 1.0
25/06:30pm 14.5 15.2 14.5 100 0.0 NNE 4 7 2 4 1006.5 1006.4 1.0
25/06:00pm 15.1 16.7 14.9 99 0.1 CALM 0 4 0 2 1006.4 1006.3 1.0
25/05:30pm 15.9 17.1 13.7 87 1.2 CALM 0 0 0 0 1006.6 1006.5 1.0
25/05:00pm 16.8 18.0 13.9 83 1.7 CALM 0 6 0 3 1006.5 1006.4 1.0
25/04:30pm 16.9 17.0 14.0 83 1.7 SSW 6 9 3 5 1006.9 1006.8 1.0
25/04:00pm 16.5 16.5 14.3 87 1.3 WSW 7 11 4 6 1006.9 1006.8 1.0
25/03:30pm 16.6 15.9 13.1 80 2.0 SW 9 13 5 7 1006.9 1006.8 1.0
25/03:00pm 17.1 16.4 14.4 84 1.6 SW 11 17 6 9 1006.9 1006.8 1.0
25/02:30pm 17.4 17.3 15.0 86 1.4 SSW 9 13 5 7 1006.9 1006.8 1.0
25/02:00pm 15.9 14.9 15.7 99 0.1 SW 15 22 8 12 1007.0 1006.9 1.0
25/01:30pm 15.5 14.8 15.5 100 0.0 SW 13 24 7 13 1007.3 1007.2 1.0
25/01:00pm 15.7 15.5 15.7 100 0.0 WSW 11 22 6 12 1007.4 1007.3 1.0
25/12:30pm 15.8 13.9 15.2 96 0.3 WSW 19 37 10 20 1007.6 1007.5 0.2
25/12:00pm 16.0 15.9 16.0 100 0.0 SW 11 19 6 10 1007.8 1007.7 0.2
25/11:30am 16.6 16.3 16.4 99 0.1 WSW 13 20 7 11 1008.0 1007.9 0.2
25/11:00am 17.2 16.7 15.9 92 0.8 WSW 13 20 7 11 1008.1 1008.0 0.0
25/10:30am 17.1 16.2 16.9 99 0.1 W 17 30 9 16 1008.2 1008.1 0.0
25/10:00am 15.9 15.0 15.9 100 0.0 W 15 22 8 12 1008.3 1008.2 0.0
25/09:30am 15.9 15.4 15.9 100 0.0 W 13 22 7 12 1008.2 1008.1 0.0
25/09:00am 15.7 14.7 15.7 100 0.0 W 15 26 8 14 1008.2 1008.1 25.8

Other Formats:

Comma delimited format used in spreadsheet applications
http://www.bom.gov.au/fwo/IDV60801/IDV60801.95874.axf

JavaScript Object Notation format (JSON) in row-major order
http://www.bom.gov.au/fwo/IDV60801/IDV60801.95874.json